Time;durP1;ratioP1;P1;durP2;ratioP2;P2;SDS_P1;SDS_P2;PMS_P1;PMS_P2;Temp;Humidity;BMP_temperature;BMP_pressure;BME280_temperature;BME280_humidity;BME280_pressure;Samples;Min_cycle;Max_cycle;Signal;HPM_P1;HPM_P2
2022/04/25 00:01:32;;;;;;;35.20;21.23;;;;;;;6.46;100.00;99376.50;5078668;28;20069;-83
2022/04/25 00:03:57;;;;;;;36.50;21.60;;;;;;;6.58;100.00;99375.28;5078297;28;20024;-83
2022/04/25 00:06:23;;;;;;;35.28;20.83;;;;;;;6.44;100.00;99383.63;5077829;28;20500;-83
2022/04/25 00:08:48;;;;;;;38.08;22.75;;;;;;;6.39;100.00;99374.94;5095955;28;20034;-83
2022/04/25 00:11:13;;;;;;;39.65;23.23;;;;;;;6.30;100.00;99365.44;5078410;28;20027;-82
2022/04/25 00:13:39;;;;;;;45.00;24.55;;;;;;;6.29;100.00;99369.88;5077447;28;20023;-83
2022/04/25 00:16:04;;;;;;;36.10;22.40;;;;;;;6.28;100.00;99373.44;5096397;28;20035;-82
2022/04/25 00:18:30;;;;;;;31.40;19.98;;;;;;;6.11;100.00;99369.44;5077541;28;20020;-82
2022/04/25 00:20:55;;;;;;;33.17;21.80;;;;;;;6.05;100.00;99374.91;5096088;28;20024;-82
2022/04/25 00:23:22;;;;;;;43.35;25.33;;;;;;;6.03;100.00;99374.06;5077378;28;20073;-82
2022/04/25 00:25:47;;;;;;;47.30;25.60;;;;;;;6.04;100.00;99367.84;5125082;22;20489;-77
2022/04/25 00:28:12;;;;;;;57.72;29.48;;;;;;;6.02;100.00;99372.31;5094382;28;20035;-77
2022/04/25 00:30:38;;;;;;;58.17;30.77;;;;;;;6.01;100.00;99379.41;5076541;28;20055;-76
2022/04/25 00:33:03;;;;;;;49.30;27.65;;;;;;;6.16;100.00;99381.72;5094651;28;20461;-76
2022/04/25 00:35:29;;;;;;;53.83;28.33;;;;;;;6.21;100.00;99382.47;5094118;28;20020;-76
2022/04/25 00:37:54;;;;;;;54.05;29.88;;;;;;;6.26;100.00;99368.16;5094239;28;20024;-77
2022/04/25 00:40:25;;;;;;;52.08;28.80;;;;;;;6.22;100.00;99376.25;5076001;28;20020;-77
2022/04/25 00:42:51;;;;;;;48.75;27.92;;;;;;;6.22;100.00;99378.91;5076024;28;20023;-77
2022/04/25 00:45:17;;;;;;;49.55;27.38;;;;;;;6.20;100.00;99375.44;5094049;28;20019;-77
2022/04/25 00:47:44;;;;;;;46.75;26.20;;;;;;;6.29;100.00;99375.16;5094025;28;20027;-77
2022/04/25 00:50:11;;;;;;;45.30;26.38;;;;;;;6.31;100.00;99373.38;5094130;28;20388;-77
2022/04/25 00:52:37;;;;;;;43.42;24.63;;;;;;;6.26;100.00;99375.28;5094439;28;20051;-77
2022/04/25 00:55:07;;;;;;;40.45;23.27;;;;;;;6.35;100.00;99375.03;5093717;28;20465;-77
2022/04/25 00:57:32;;;;;;;41.80;22.80;;;;;;;6.37;100.00;99377.63;5093838;28;20076;-76
2022/04/25 00:59:58;;;;;;;39.30;23.45;;;;;;;6.31;100.00;99383.97;5093650;28;20020;-77
2022/04/25 01:02:26;;;;;;;36.75;22.92;;;;;;;6.19;100.00;99381.63;5093868;28;20504;-77
2022/04/25 01:04:51;;;;;;;36.90;22.60;;;;;;;6.14;100.00;99385.28;5093632;28;20016;-77
2022/04/25 01:07:16;;;;;;;38.70;22.60;;;;;;;6.22;100.00;99385.09;5093871;28;20023;-77
2022/04/25 01:09:42;;;;;;;37.30;22.40;;;;;;;6.11;100.00;99385.34;5094017;28;20415;-77
2022/04/25 01:12:07;;;;;;;44.00;22.73;;;;;;;6.16;100.00;99390.53;5075556;28;20020;-76
2022/04/25 01:14:33;;;;;;;38.20;22.42;;;;;;;6.18;100.00;99393.16;5093638;28;20021;-77
2022/04/25 01:17:00;;;;;;;38.42;23.40;;;;;;;6.13;100.00;99396.78;5093521;28;20040;-77
2022/04/25 01:19:25;;;;;;;38.75;23.27;;;;;;;6.13;100.00;99396.78;5075383;28;20028;-77
2022/04/25 01:22:09;;;;;;;37.13;22.80;;;;;;;6.16;100.00;99395.00;5093514;28;20028;-77
2022/04/25 01:27:18;;;;;;;37.42;22.17;;;;;;;6.13;100.00;99396.78;5093663;28;20401;-77
2022/04/25 01:29:44;;;;;;;36.72;21.73;;;;;;;6.12;100.00;99400.38;5093431;28;20032;-77
2022/04/25 01:32:10;;;;;;;40.22;22.95;;;;;;;6.18;100.00;99393.16;5093811;28;20019;-77
2022/04/25 01:34:37;;;;;;;39.13;22.10;;;;;;;6.08;100.00;99393.38;5093568;28;20023;-77
2022/04/25 01:37:05;;;;;;;36.70;23.15;;;;;;;6.10;100.00;99404.84;5093340;28;20031;-77
2022/04/25 01:39:33;;;;;;;38.40;21.90;;;;;;;6.08;100.00;99401.34;5093471;28;20027;-77
2022/04/25 01:41:58;;;;;;;39.70;22.40;;;;;;;6.12;100.00;99404.78;5093353;28;20081;-77
2022/04/25 01:44:23;;;;;;;39.05;22.25;;;;;;;6.05;100.00;99398.75;5093352;28;20020;-77
2022/04/25 01:46:49;;;;;;;39.15;21.75;;;;;;;6.00;100.00;99401.53;5093303;28;20469;-77
2022/04/25 01:49:14;;;;;;;38.15;22.67;;;;;;;5.97;100.00;99391.00;5093314;28;20028;-76
2022/04/25 01:51:39;;;;;;;38.97;22.23;;;;;;;5.98;100.00;99397.19;5093260;28;20027;-77
2022/04/25 01:54:05;;;;;;;39.03;22.23;;;;;;;5.90;100.00;99400.03;5075097;28;20020;-77
2022/04/25 01:56:30;;;;;;;34.35;22.25;;;;;;;5.92;100.00;99401.72;5093139;28;20040;-77
2022/04/25 01:58:56;;;;;;;38.17;23.17;;;;;;;5.96;100.00;99393.66;5093153;28;20024;-77
2022/04/25 02:01:21;;;;;;;37.10;22.23;;;;;;;5.85;100.00;99391.31;5075055;28;20024;-77
2022/04/25 02:03:47;;;;;;;40.17;23.08;;;;;;;5.82;100.00;99397.56;5093137;28;20024;-77
2022/04/25 02:06:12;;;;;;;36.58;21.00;;;;;;;5.84;100.00;99385.13;5074797;28;20034;-76
2022/04/25 02:08:38;;;;;;;41.88;23.77;;;;;;;5.82;100.00;99392.25;5075030;28;20495;-76
2022/04/25 02:13:51;;;;;;;41.15;23.20;;;;;;;5.80;100.00;99394.94;5097364;28;20503;-76
2022/04/25 02:16:18;;;;;;;39.45;23.48;;;;;;;5.85;100.00;99386.84;5078663;28;20027;-76
2022/04/25 02:18:43;;;;;;;41.30;24.02;;;;;;;5.82;100.00;99386.97;5096912;28;20153;-77
2022/04/25 02:21:09;;;;;;;42.58;22.73;;;;;;;5.82;100.00;99381.66;5097064;28;20107;-77
2022/04/25 02:23:34;;;;;;;44.58;23.27;;;;;;;5.90;100.00;99389.41;5078831;28;20020;-76
2022/04/25 02:26:00;;;;;;;40.17;22.85;;;;;;;5.85;100.00;99375.41;5078418;28;20495;-76
2022/04/25 02:28:25;;;;;;;38.38;22.17;;;;;;;5.88;100.00;99376.19;5096779;28;20024;-77
2022/04/25 02:30:51;;;;;;;37.40;22.30;;;;;;;5.86;100.00;99380.66;5096994;28;20107;-76
2022/04/25 02:33:18;;;;;;;40.83;22.90;;;;;;;5.83;100.00;99372.78;5096713;28;20051;-77
2022/04/25 02:35:43;;;;;;;42.30;22.92;;;;;;;5.82;100.00;99381.66;5096868;28;20016;-77
2022/04/25 02:38:09;;;;;;;40.53;21.50;;;;;;;5.86;100.00;99383.31;5096648;28;20055;-77
2022/04/25 02:40:34;;;;;;;43.17;23.10;;;;;;;5.76;100.00;99372.06;5096574;28;20057;-77
2022/04/25 02:42:59;;;;;;;39.95;22.80;;;;;;;5.82;100.00;99373.72;5078651;28;20370;-77
2022/04/25 02:45:25;;;;;;;37.55;22.45;;;;;;;5.80;100.00;99364.91;5096667;28;20077;-77
2022/04/25 02:47:50;;;;;;;36.92;21.48;;;;;;;5.76;100.00;99371.19;5096514;28;20016;-77
2022/04/25 02:50:16;;;;;;;37.70;24.00;;;;;;;5.74;100.00;99373.03;5096573;28;20489;-77
2022/04/25 02:52:41;;;;;;;44.95;23.27;;;;;;;5.64;100.00;99370.63;5096657;28;20039;-77
2022/04/25 02:55:08;;;;;;;43.00;22.40;;;;;;;5.64;100.00;99367.09;5095941;28;20069;-76
2022/04/25 02:57:33;;;;;;;37.38;24.08;;;;;;;5.58;100.00;99374.28;5078342;28;20463;-76
2022/04/25 02:59:58;;;;;;;44.83;24.45;;;;;;;5.55;100.00;99368.16;5096149;28;20521;-77
2022/04/25 03:02:24;;;;;;;42.63;24.02;;;;;;;5.59;100.00;99361.91;5096091;28;20020;-77
2022/04/25 03:04:49;;;;;;;47.17;24.67;;;;;;;5.53;100.00;99364.69;5077813;28;20024;-77
2022/04/25 03:07:14;;;;;;;47.42;25.48;;;;;;;5.53;100.00;99364.69;5078084;28;20078;-77
2022/04/25 03:09:40;;;;;;;45.10;24.50;;;;;;;5.46;100.00;99364.81;5077842;28;20469;-77
2022/04/25 03:12:05;;;;;;;47.28;25.10;;;;;;;5.49;100.00;99363.88;5095892;28;20015;-76
2022/04/25 03:14:31;;;;;;;41.28;24.67;;;;;;;5.46;100.00;99364.81;5095839;28;20024;-77
2022/04/25 03:16:56;;;;;;;51.08;25.83;;;;;;;5.46;100.00;99366.63;5095736;28;20028;-77
2022/04/25 03:19:21;;;;;;;39.38;23.88;;;;;;;5.46;100.00;99366.63;5077643;28;20468;-76
2022/04/25 03:21:46;;;;;;;40.40;22.08;;;;;;;5.35;100.00;99361.59;5077652;28;20031;-76
2022/04/25 03:24:12;;;;;;;37.17;22.30;;;;;;;5.48;100.00;99360.38;5095517;28;20088;-76
2022/04/25 03:26:37;;;;;;;37.88;21.13;;;;;;;5.38;100.00;99361.50;5095399;28;20039;-76
2022/04/25 03:29:03;;;;;;;44.58;22.35;;;;;;;5.44;100.00;99361.34;5095664;28;20456;-76
2022/04/25 03:31:28;;;;;;;39.80;20.25;;;;;;;5.35;100.00;99357.16;5095594;28;20020;-76
2022/04/25 03:33:53;;;;;;;40.28;20.42;;;;;;;5.35;100.00;99361.59;5077324;28;20023;-77
2022/04/25 03:36:19;;;;;;;35.08;20.40;;;;;;;5.31;100.00;99355.47;5095551;28;20023;-77
2022/04/25 03:38:44;;;;;;;34.78;19.77;;;;;;;5.29;100.00;99353.78;5095575;28;20454;-76
2022/04/25 03:41:10;;;;;;;35.22;19.63;;;;;;;5.33;100.00;99366.91;5095600;28;20443;-76
2022/04/25 03:43:35;;;;;;;33.85;19.23;;;;;;;5.31;100.00;99367.88;5077739;28;20024;-77
2022/04/25 03:46:01;;;;;;;36.00;18.90;;;;;;;5.28;100.00;99381.16;5095838;28;20020;-77
2022/04/25 03:48:26;;;;;;;31.17;18.63;;;;;;;5.20;100.00;99387.50;5077594;28;20024;-77
2022/04/25 03:50:52;;;;;;;33.20;17.63;;;;;;;5.20;100.00;99392.81;5095227;28;20048;-77
2022/04/25 03:53:17;;;;;;;30.75;18.02;;;;;;;5.23;100.00;99395.34;5077052;28;20042;-77
2022/04/25 03:58:27;;;;;;;27.15;17.05;;;;;;;5.24;100.00;99413.00;5095129;28;20527;-76
2022/04/25 04:00:52;;;;;;;30.42;15.88;;;;;;;5.22;100.00;99404.22;5095210;28;20028;-76
2022/04/25 04:03:18;;;;;;;26.42;16.45;;;;;;;5.17;100.00;99411.38;5094999;28;20031;-77
2022/04/25 04:05:45;;;;;;;25.88;15.50;;;;;;;5.12;100.00;99414.13;5077088;28;20484;-77
2022/04/25 04:08:11;;;;;;;37.78;16.38;;;;;;;5.18;100.00;99412.25;5095598;28;20396;-77
2022/04/25 04:10:36;;;;;;;30.30;15.43;;;;;;;5.22;100.00;99404.22;5095516;28;20076;-77
2022/04/25 04:13:03;;;;;;;28.63;15.43;;;;;;;5.09;100.00;99414.19;5095494;28;20020;-77
2022/04/25 04:15:29;;;;;;;30.20;15.30;;;;;;;5.14;100.00;99416.75;5095125;28;20432;-77
2022/04/25 04:17:54;;;;;;;28.98;14.40;;;;;;;5.09;100.00;99419.50;5095384;28;20027;-77
2022/04/25 04:20:19;;;;;;;32.05;16.05;;;;;;;5.08;100.00;99422.16;5095310;28;20028;-77
2022/04/25 04:22:44;;;;;;;28.67;14.98;;;;;;;5.11;100.00;99422.09;5077208;28;20032;-77
2022/04/25 04:25:12;;;;;;;29.13;15.70;;;;;;;5.14;100.00;99429.97;5076847;28;20020;-77
2022/04/25 04:27:41;;;;;;;24.40;14.50;;;;;;;5.15;100.00;99429.09;5094602;28;20031;-77
2022/04/25 04:30:16;;;;;;;26.30;14.95;;;;;;;5.20;100.00;99432.50;5095419;28;20020;-79
2022/04/25 04:32:41;;;;;;;28.20;14.63;;;;;;;5.10;100.00;99431.81;5094756;28;20346;-76
2022/04/25 04:35:12;;;;;;;28.67;14.63;;;;;;;5.11;100.00;99432.69;5093419;28;20024;-75
2022/04/25 04:37:39;;;;;;;28.60;14.30;;;;;;;5.09;100.00;99439.78;5094301;28;20105;-77
2022/04/25 04:42:50;;;;;;;28.55;15.52;;;;;;;5.08;100.00;99438.03;5095970;28;20035;-77
2022/04/25 04:45:16;;;;;;;28.75;15.90;;;;;;;5.09;100.00;99440.66;5076962;28;20017;-77
2022/04/25 04:47:41;;;;;;;25.75;15.60;;;;;;;5.10;100.00;99442.38;5076416;28;20027;-77
2022/04/25 04:50:14;;;;;;;32.75;14.57;;;;;;;5.14;100.00;99443.19;5096228;28;20519;-77
2022/04/25 04:52:40;;;;;;;24.65;14.23;;;;;;;5.12;100.00;99450.31;5095070;28;20548;-77
2022/04/25 04:55:05;;;;;;;24.77;13.55;;;;;;;5.22;100.00;99457.16;5076699;28;20016;-77
2022/04/25 04:57:30;;;;;;;29.27;14.48;;;;;;;5.22;100.00;99457.16;5094758;28;20032;-77
2022/04/25 04:59:55;;;;;;;28.27;13.70;;;;;;;5.21;100.00;99460.69;5094964;28;20047;-77
2022/04/25 05:02:21;;;;;;;23.50;14.27;;;;;;;5.27;100.00;99464.13;5095028;28;20031;-77
2022/04/25 05:04:46;;;;;;;24.90;13.65;;;;;;;5.21;100.00;99460.69;5095125;28;20024;-77
2022/04/25 05:07:12;;;;;;;26.27;14.95;;;;;;;5.25;100.00;99467.69;5076728;28;20020;-78
2022/04/25 05:09:37;;;;;;;27.48;14.70;;;;;;;5.23;100.00;99469.47;5076775;28;20024;-77
2022/04/25 05:12:03;;;;;;;26.77;14.65;;;;;;;5.29;100.00;99467.59;5076815;28;20027;-77
2022/04/25 05:14:28;;;;;;;31.33;14.55;;;;;;;5.30;100.00;99469.34;5076421;28;20058;-77
2022/04/25 05:16:54;;;;;;;32.75;14.13;;;;;;;5.38;100.00;99474.47;5096026;28;20027;-76
2022/04/25 05:19:20;;;;;;;26.98;15.07;;;;;;;5.46;100.00;99476.03;5097122;28;20401;-77
2022/04/25 05:21:46;;;;;;;26.10;14.77;;;;;;;5.56;100.00;99476.72;5097773;28;20023;-77
2022/04/25 05:24:11;;;;;;;23.40;14.00;;;;;;;5.57;100.00;99473.16;5096578;28;20494;-77
2022/04/25 05:26:37;;;;;;;29.10;14.88;;;;;;;5.64;100.00;99479.22;5077752;28;20116;-77
2022/04/25 05:29:02;;;;;;;25.60;13.70;;;;;;;5.64;100.00;99481.84;5077836;28;20085;-77
2022/04/25 05:31:27;;;;;;;28.30;14.18;;;;;;;5.63;100.00;99480.09;5078225;28;20062;-78
2022/04/25 05:33:53;;;;;;;26.60;14.13;;;;;;;5.58;100.00;99480.22;5077486;28;20435;-78
2022/04/25 05:36:18;;;;;;;24.75;14.65;;;;;;;5.71;100.00;99490.53;5077616;28;20024;-78
2022/04/25 05:38:43;;;;;;;28.88;14.85;;;;;;;5.70;100.00;99487.00;5077572;28;20031;-78
2022/04/25 05:41:10;;;;;;;28.88;14.35;;;;;;;5.66;100.00;99493.28;5077238;28;20034;-77
2022/04/25 05:43:37;;;;;;;26.85;14.13;;;;;;;5.75;100.00;99496.59;5095513;28;20020;-78
2022/04/25 05:46:03;;;;;;;30.05;15.13;;;;;;;5.84;100.00;99480.53;5095311;28;20020;-78
2022/04/25 05:53:56;;;;;;;30.48;15.77;;;;;;;5.79;100.00;99493.00;5095633;28;20073;-77
2022/04/25 05:56:21;;;;;;;32.35;15.90;;;;;;;5.78;100.00;99500.06;5096213;28;20032;-76
2022/04/25 05:58:47;;;;;;;29.02;15.70;;;;;;;5.80;100.00;99503.56;5078543;28;20404;-77
2022/04/25 06:01:12;;;;;;;28.52;14.40;;;;;;;5.82;100.00;99506.19;5095797;28;20020;-78
2022/04/25 06:03:38;;;;;;;27.25;14.65;;;;;;;5.79;100.00;99506.25;5077277;28;20034;-78
2022/04/25 06:06:04;;;;;;;30.63;14.30;;;;;;;5.78;100.00;99510.66;5096170;28;20024;-77
2022/04/25 06:08:29;;;;;;;28.30;14.15;;;;;;;5.78;100.00;99508.03;5077759;28;20165;-78
2022/04/25 06:10:54;;;;;;;29.15;14.70;;;;;;;5.88;100.00;99502.50;5095578;28;20127;-77
2022/04/25 06:13:20;;;;;;;27.73;13.63;;;;;;;5.84;100.00;99507.00;5077171;28;20031;-76
2022/04/25 06:15:45;;;;;;;31.48;14.63;;;;;;;5.84;100.00;99522.91;5077428;28;20119;-77
2022/04/25 06:18:10;;;;;;;25.65;13.63;;;;;;;5.86;100.00;99520.22;5076819;28;20035;-78
2022/04/25 06:20:37;;;;;;;26.90;13.13;;;;;;;5.85;100.00;99521.97;5095162;28;20020;-78
2022/04/25 06:23:02;;;;;;;29.77;14.35;;;;;;;5.70;100.00;99526.72;5076249;28;20024;-78
2022/04/25 06:25:29;;;;;;;28.48;15.07;;;;;;;5.75;100.00;99523.97;5115009;22;20032;-84
2022/04/25 06:27:55;;;;;;;27.67;14.15;;;;;;;5.76;100.00;99525.72;5074289;28;20074;-83
2022/04/25 06:30:28;;;;;;;27.05;13.98;;;;;;;5.73;100.00;99535.50;5074864;28;20020;-83
2022/04/25 06:32:54;;;;;;;30.17;14.93;;;;;;;5.75;100.00;99534.56;5074403;28;20020;-83
2022/04/25 06:35:20;;;;;;;24.30;13.63;;;;;;;5.79;100.00;99535.38;5092466;28;20422;-84
2022/04/25 06:37:45;;;;;;;27.80;14.57;;;;;;;5.86;100.00;99539.63;5092684;28;20431;-83
2022/04/25 06:40:11;;;;;;;28.58;14.18;;;;;;;5.74;100.00;99535.50;5092479;28;20080;-84
2022/04/25 06:42:37;;;;;;;28.55;15.25;;;;;;;5.81;100.00;99534.44;5092562;28;20057;-84
2022/04/25 06:45:02;;;;;;;27.85;14.52;;;;;;;5.82;100.00;99541.47;5074190;28;20024;-85
2022/04/25 06:47:28;;;;;;;32.53;15.32;;;;;;;5.94;100.00;99534.16;5092307;28;20020;-83
2022/04/25 06:49:54;;;;;;;29.15;15.82;;;;;;;5.97;100.00;99543.81;5092775;28;20032;-83
2022/04/25 06:52:20;;;;;;;29.98;15.68;;;;;;;5.98;100.00;99549.06;5092490;28;20031;-83
2022/04/25 06:54:46;;;;;;;32.80;15.48;;;;;;;6.00;100.00;99559.66;5093030;28;20098;-84
2022/04/25 06:57:11;;;;;;;28.77;15.05;;;;;;;5.93;100.00;99551.84;5074295;28;20020;-83
2022/04/25 06:59:37;;;;;;;27.55;14.40;;;;;;;5.89;100.00;99566.06;5095977;28;20111;-84
2022/04/25 07:02:02;;;;;;;25.65;15.07;;;;;;;5.96;100.00;99560.63;5095877;28;20485;-83
2022/04/25 07:04:28;;;;;;;30.30;15.77;;;;;;;5.96;100.00;99557.97;5095859;28;20024;-83
2022/04/25 07:06:53;;;;;;;29.85;15.80;;;;;;;5.95;100.00;99561.53;5095764;28;20023;-84
2022/04/25 07:09:19;;;;;;;33.60;16.52;;;;;;;5.95;100.00;99562.41;5078233;28;20020;-83
2022/04/25 07:11:45;;;;;;;30.83;16.75;;;;;;;5.96;100.00;99568.56;5095771;28;20571;-83
2022/04/25 07:14:15;;;;;;;29.40;16.48;;;;;;;5.88;100.00;99566.97;5095657;28;20481;-83
2022/04/25 07:16:44;;;;;;;30.27;15.40;;;;;;;5.95;100.00;99566.84;5095990;28;20413;-83
2022/04/25 07:19:10;;;;;;;31.30;16.40;;;;;;;6.07;100.00;99565.69;5078036;28;20028;-83
2022/04/25 07:29:48;;;;;;;31.40;15.75;;;;;;;6.11;100.00;99570.91;5094484;28;20027;-83
2022/04/25 07:32:16;;;;;;;29.42;16.45;;;;;;;6.13;100.00;99577.03;5094277;28;20047;-83
2022/04/25 07:34:48;;;;;;;30.40;16.58;;;;;;;6.09;100.00;99575.38;5094116;28;20024;-83
2022/04/25 07:37:15;;;;;;;28.23;16.02;;;;;;;6.12;100.00;99570.00;5094311;28;20031;-83
2022/04/25 07:39:41;;;;;;;27.55;16.35;;;;;;;6.08;100.00;99573.63;5094177;28;20198;-83
2022/04/25 07:42:07;;;;;;;29.98;16.67;;;;;;;6.05;100.00;99578.97;5094363;28;20374;-83
2022/04/25 07:44:32;;;;;;;32.45;16.30;;;;;;;6.09;100.00;99583.31;5094204;28;20027;-83
2022/04/25 07:46:59;;;;;;;31.45;16.45;;;;;;;6.02;100.00;99581.69;5094029;28;20046;-83
2022/04/25 07:49:25;;;;;;;30.23;16.98;;;;;;;6.14;100.00;99585.88;5094296;28;20107;-83
2022/04/25 07:51:50;;;;;;;34.45;18.55;;;;;;;6.16;100.00;99580.53;5094158;28;20047;-84
2022/04/25 07:54:16;;;;;;;32.47;16.77;;;;;;;6.18;100.00;99589.34;5094631;28;20511;-83
2022/04/25 07:56:42;;;;;;;28.50;17.92;;;;;;;6.29;100.00;99592.59;5093858;28;20032;-84
2022/04/25 07:59:08;;;;;;;31.83;17.63;;;;;;;6.29;100.00;99591.75;5094037;28;20469;-83
2022/04/25 08:01:33;;;;;;;32.53;17.60;;;;;;;6.20;100.00;99593.69;5094152;28;20024;-86
2022/04/25 08:03:59;;;;;;;32.78;16.70;;;;;;;6.33;100.00;99601.34;5093643;28;20480;-83
2022/04/25 08:06:25;;;;;;;33.72;16.60;;;;;;;6.41;100.00;99603.81;5093782;28;20083;-83
2022/04/25 08:08:51;;;;;;;29.92;16.42;;;;;;;6.50;100.00;99606.25;5094039;28;20080;-83
2022/04/25 08:11:17;;;;;;;32.03;17.25;;;;;;;6.55;100.00;99608.78;5093557;28;20077;-83
2022/04/25 08:19:15;;;;;;;30.20;16.85;;;;;;;6.64;100.00;99620.97;5093968;28;20027;-83
2022/04/25 08:21:42;;;;;;;29.50;16.15;;;;;;;6.62;100.00;99613.06;5093796;28;20426;-84
2022/04/25 08:24:07;;;;;;;32.47;17.30;;;;;;;6.66;100.00;99621.78;5093826;28;20468;-84
2022/04/25 08:26:33;;;;;;;28.83;17.15;;;;;;;6.67;100.00;99618.25;5089601;28;100583;-83
2022/04/25 08:28:59;;;;;;;32.95;17.13;;;;;;;6.74;100.00;99625.13;5093979;28;20414;-83
2022/04/25 08:31:25;;;;;;;25.90;16.08;;;;;;;6.77;100.00;99632.16;5094039;28;20104;-83
2022/04/25 08:33:51;;;;;;;30.10;17.02;;;;;;;6.71;100.00;99635.81;5094092;28;20156;-83
2022/04/25 08:36:18;;;;;;;27.02;16.05;;;;;;;6.79;100.00;99639.16;5093735;28;20028;-83
2022/04/25 08:38:44;;;;;;;28.63;16.73;;;;;;;6.85;100.00;99642.56;5094330;28;20020;-83
2022/04/25 08:41:10;;;;;;;31.08;17.30;;;;;;;6.92;100.00;99641.50;5093899;28;20031;-83
2022/04/25 08:43:38;;;;;;;27.27;16.17;;;;;;;6.92;100.00;99639.72;5093707;28;20024;-83
2022/04/25 08:46:07;;;;;;;30.77;17.48;;;;;;;6.84;100.00;99647.00;5093840;28;20030;-83
2022/04/25 08:48:33;;;;;;;28.10;17.67;;;;;;;6.86;100.00;99652.25;5094087;28;20056;-83
2022/04/25 08:50:58;;;;;;;33.33;17.45;;;;;;;6.89;100.00;99653.06;5075766;28;20508;-83
2022/04/25 08:53:25;;;;;;;32.53;17.83;;;;;;;6.90;100.00;99651.28;5093717;28;20212;-83
2022/04/25 08:55:53;;;;;;;31.90;17.58;;;;;;;6.89;100.00;99658.38;5093461;28;20020;-83
2022/04/25 08:58:20;;;;;;;32.78;17.73;;;;;;;7.02;100.00;99661.59;5093918;28;20071;-83
2022/04/25 09:00:45;;;;;;;34.40;18.05;;;;;;;7.14;100.00;99668.38;5094778;28;20030;-83
2022/04/25 09:03:12;;;;;;;32.67;17.65;;;;;;;7.15;100.00;99666.59;5093757;28;20435;-83
2022/04/25 09:05:38;;;;;;;31.25;17.90;;;;;;;7.20;100.00;99672.66;5093528;28;20031;-83
2022/04/25 09:08:04;;;;;;;30.63;17.75;;;;;;;7.18;100.00;99677.13;5075728;28;20035;-83
2022/04/25 09:10:29;;;;;;;28.98;17.02;;;;;;;7.20;100.00;99677.97;5075031;28;20016;-83
2022/04/25 09:12:58;;;;;;;32.80;18.27;;;;;;;7.25;100.00;99689.34;5093455;28;20115;-83
2022/04/25 09:15:24;;;;;;;29.23;17.80;;;;;;;7.23;100.00;99691.16;5075223;28;20024;-82
2022/04/25 09:17:49;;;;;;;29.73;17.35;;;;;;;7.32;100.00;99689.19;5093884;28;20030;-82
2022/04/25 09:20:15;;;;;;;32.13;18.05;;;;;;;7.38;100.00;99686.34;5075287;28;20431;-83
2022/04/25 09:22:40;;;;;;;28.13;16.98;;;;;;;7.46;100.00;99692.34;5094030;28;20477;-82
2022/04/25 09:25:09;;;;;;;30.73;16.20;;;;;;;7.53;100.00;99689.50;5093511;28;20054;-83
2022/04/25 09:27:35;;;;;;;27.98;17.42;;;;;;;7.65;100.00;99697.16;5075395;28;20056;-83
2022/04/25 09:30:14;;;;;;;31.05;17.33;;;;;;;7.62;100.00;99697.25;5093461;28;20027;-82
2022/04/25 09:32:40;;;;;;;28.73;16.98;;;;;;;7.82;100.00;99702.00;5093415;28;20035;-83
2022/04/25 09:35:35;;;;;;;27.95;16.17;;;;;;;7.90;100.00;99704.44;5093373;28;20020;-82
2022/04/25 09:38:03;;;;;;;23.88;16.00;;;;;;;8.05;100.00;99705.78;5093566;28;20070;-83
2022/04/25 09:40:36;;;;;;;27.58;16.35;;;;;;;8.05;100.00;99704.91;5093492;28;20108;-83
2022/04/25 09:43:06;;;;;;;28.88;16.08;;;;;;;8.08;100.00;99707.50;5093245;28;20020;-81
2022/04/25 09:45:33;;;;;;;26.00;14.90;;;;;;;8.05;100.00;99708.44;5092929;28;20030;-82
2022/04/25 09:47:58;;;;;;;26.20;15.07;;;;;;;7.92;100.00;99707.94;5092880;28;20028;-82
2022/04/25 09:50:27;;;;;;;25.02;14.05;;;;;;;8.01;100.00;99713.91;5092833;28;20093;-83
2022/04/25 09:53:03;;;;;;;24.75;14.20;;;;;;;7.91;100.00;99708.84;5093002;28;20017;-83
2022/04/25 09:55:30;;;;;;;24.35;15.60;;;;;;;7.88;100.00;99714.25;5075262;28;20535;-83
2022/04/25 09:57:56;;;;;;;25.70;15.30;;;;;;;7.89;100.00;99708.00;5093040;28;20039;-83
2022/04/25 10:00:33;;;;;;;26.45;16.05;;;;;;;7.98;100.00;99714.00;5093121;28;20028;-81
2022/04/25 10:02:59;;;;;;;24.30;14.77;;;;;;;8.10;100.00;99713.63;5093919;28;20032;-82
2022/04/25 10:05:36;;;;;;;25.08;15.27;;;;;;;7.98;100.00;99719.31;5075202;28;20024;-82
2022/04/25 10:08:04;;;;;;;24.60;14.88;;;;;;;8.03;100.00;99720.91;5092988;28;20488;-82
2022/04/25 10:10:29;;;;;;;24.92;13.95;;;;;;;7.97;100.00;99720.22;5092943;28;20032;-82
2022/04/25 10:12:55;;;;;;;23.52;15.05;;;;;;;7.96;100.00;99731.78;5093174;28;20038;-83
2022/04/25 10:15:22;;;;;;;22.63;14.20;;;;;;;7.92;100.00;99731.84;5094276;28;20024;-82
2022/04/25 10:17:51;;;;;;;22.50;14.45;;;;;;;7.90;100.00;99733.69;5076504;28;20027;-82
2022/04/25 10:20:21;;;;;;;21.40;13.73;;;;;;;7.97;100.00;99736.16;5093770;28;20028;-83
2022/04/25 10:22:46;;;;;;;23.25;14.70;;;;;;;8.05;100.00;99739.47;5093002;28;20024;-82
2022/04/25 10:25:12;;;;;;;24.75;14.48;;;;;;;7.99;100.00;99747.66;5092533;28;20032;-82
2022/04/25 10:27:41;;;;;;;23.65;15.35;;;;;;;7.89;100.00;99745.22;5092942;28;20027;-82
2022/04/25 10:30:16;;;;;;;22.90;14.13;;;;;;;7.95;100.00;99741.53;5092483;28;20024;-82
2022/04/25 10:32:42;;;;;;;19.92;13.77;;;;;;;7.85;100.00;99756.88;5093249;28;20484;-82
2022/04/25 10:35:13;;;;;;;20.83;14.20;;;;;;;8.01;100.00;99751.13;5096465;28;20063;-82
2022/04/25 10:37:42;;;;;;;20.85;13.90;;;;;;;8.00;100.00;99749.38;5097271;28;20031;-82
2022/04/25 10:40:10;;;;;;;20.98;13.85;;;;;;;7.99;100.00;99753.81;5078760;28;20024;-82
2022/04/25 10:45:55;;;;;;;17.45;12.15;;;;;;;8.03;100.00;99755.50;5096789;28;20027;-83
2022/04/25 10:48:20;;;;;;;21.33;13.45;;;;;;;8.02;100.00;99763.50;5078437;28;20114;-82
2022/04/25 10:51:10;;;;;;;22.58;14.57;;;;;;;7.93;100.00;99757.53;5096789;28;20099;-82
2022/04/25 10:53:59;;;;;;;20.95;14.23;;;;;;;7.84;100.00;99765.75;5097323;28;20434;-82
2022/04/25 10:56:26;;;;;;;20.38;14.20;;;;;;;7.97;100.00;99765.41;5096377;28;20031;-82
2022/04/25 10:59:25;;;;;;;20.70;13.77;;;;;;;7.93;100.00;99760.19;5096416;28;20040;-82
2022/04/25 11:01:52;;;;;;;19.58;14.00;;;;;;;8.00;100.00;99765.31;5096826;28;20023;-83
2022/04/25 11:04:18;;;;;;;18.52;12.80;;;;;;;8.03;100.00;99765.25;5096148;28;20132;-81
2022/04/25 11:06:44;;;;;;;17.98;12.48;;;;;;;8.03;100.00;99765.25;5096185;28;20107;-82
2022/04/25 11:09:09;;;;;;;14.63;11.15;;;;;;;7.90;100.00;99760.28;5096436;28;20107;-83
2022/04/25 11:11:53;;;;;;;17.17;12.23;;;;;;;7.81;100.00;99763.16;5096198;28;20102;-81
2022/04/25 11:14:18;;;;;;;16.80;12.13;;;;;;;7.98;100.00;99757.41;5079132;28;20035;-82
2022/04/25 11:17:06;;;;;;;17.13;11.50;;;;;;;8.11;100.00;99770.34;5096324;28;20028;-83
2022/04/25 11:19:48;;;;;;;16.42;11.55;;;;;;;8.08;100.00;99773.09;5096408;28;20028;-82
2022/04/25 11:22:35;;;;;;;17.60;11.85;;;;;;;7.99;100.00;99772.41;5096621;28;20032;-82
2022/04/25 11:25:25;;;;;;;16.48;11.93;;;;;;;8.15;100.00;99777.31;5096275;28;20020;-83
2022/04/25 11:28:10;;;;;;;19.40;12.15;;;;;;;8.11;100.00;99781.00;5096001;28;20052;-82
2022/04/25 11:30:36;;;;;;;16.52;11.40;;;;;;;8.18;100.00;99789.66;5097091;28;20382;-83
2022/04/25 11:33:06;;;;;;;16.90;11.77;;;;;;;8.18;100.00;99789.66;5095751;28;20073;-82
2022/04/25 11:35:31;;;;;;;19.65;11.93;;;;;;;8.18;100.00;99789.66;5095431;28;20032;-82
2022/04/25 11:37:57;;;;;;;16.73;11.65;;;;;;;8.27;100.00;99789.41;5095874;28;20027;-82
2022/04/25 11:40:24;;;;;;;15.20;11.02;;;;;;;8.16;100.00;99798.56;5095863;28;20028;-82
2022/04/25 11:42:49;;;;;;;15.93;10.57;;;;;;;8.13;100.00;99803.97;5095765;28;20370;-82
2022/04/25 11:45:14;;;;;;;15.18;10.25;;;;;;;8.21;100.00;99808.19;5095888;28;20077;-82
2022/04/25 11:47:40;;;;;;;16.35;11.27;;;;;;;8.22;100.00;99804.63;5095745;28;20028;-82
2022/04/25 11:50:07;;;;;;;13.70;9.90;;;;;;;8.31;100.00;99801.69;5096324;28;20107;-82